createdAt,value
2022-12-24T12:54:10.599Z,-19.24
2022-12-24T12:57:35.632Z,-19.22
2022-12-24T13:01:04.853Z,-19.22
2022-12-24T13:04:20.364Z,-19.16
2022-12-24T13:07:38.073Z,-19.04
2022-12-24T13:11:18.356Z,-18.82
2022-12-24T13:14:28.198Z,-18.75
2022-12-24T13:17:43.165Z,-18.61
2022-12-24T13:20:52.369Z,-18.47
2022-12-24T13:24:32.339Z,-18.39
2022-12-24T13:27:36.267Z,-18.42
2022-12-24T13:30:59.318Z,-18.50
2022-12-24T13:34:47.585Z,-18.69
2022-12-24T13:37:52.374Z,-18.68
2022-12-24T13:40:56.810Z,-18.82
2022-12-24T13:44:22.144Z,-18.79
2022-12-24T13:47:32.395Z,-18.93
2022-12-24T13:50:59.623Z,-19.01
2022-12-24T13:54:21.768Z,-18.97
2022-12-24T13:57:27.911Z,-19.00
2022-12-24T14:01:02.871Z,-19.04
2022-12-24T14:04:10.319Z,-19.01
2022-12-24T14:07:19.436Z,-18.93
2022-12-24T14:10:25.709Z,-18.88
2022-12-24T14:13:40.792Z,-18.88
2022-12-24T14:16:52.176Z,-18.88
2022-12-24T14:19:59.289Z,-18.92
2022-12-24T14:23:40.454Z,-18.87
2022-12-24T14:26:56.121Z,-18.83
2022-12-24T14:30:28.581Z,-18.79
2022-12-24T14:33:33.791Z,-18.79
2022-12-24T14:36:38.369Z,-18.80
2022-12-24T14:39:47.009Z,-18.84
2022-12-24T14:43:07.146Z,-18.92
2022-12-24T14:46:41.582Z,-18.83
2022-12-24T14:49:58.229Z,-18.90
2022-12-24T14:53:18.844Z,-18.98
2022-12-24T14:56:42.405Z,-18.96
2022-12-24T14:59:54.739Z,-19.00
2022-12-24T15:02:58.200Z,-19.04
2022-12-24T15:06:07.422Z,-19.18
2022-12-24T15:09:23.790Z,-19.23
2022-12-24T15:12:27.089Z,-19.20
2022-12-24T15:15:31.408Z,-19.25
2022-12-24T15:18:38.815Z,-19.28
2022-12-24T15:21:45.080Z,-19.37
2022-12-24T15:24:48.875Z,-19.26
2022-12-24T15:28:24.621Z,-19.14
2022-12-24T15:31:29.615Z,-19.14
2022-12-24T15:34:48.316Z,-19.19
2022-12-24T15:37:51.748Z,-19.32
2022-12-24T15:40:56.008Z,-19.32
2022-12-24T15:44:18.685Z,-19.39
2022-12-24T15:47:27.781Z,-19.34
2022-12-24T15:50:50.126Z,-19.39
2022-12-24T15:54:00.372Z,-19.39
2022-12-24T15:57:34.451Z,-19.44
2022-12-24T16:00:56.506Z,-19.38
2022-12-24T16:04:01.375Z,-19.33
2022-12-24T16:07:23.684Z,-19.27
2022-12-24T16:10:28.602Z,-19.29
2022-12-24T16:13:50.419Z,-19.35
2022-12-24T16:16:55.549Z,-19.39
2022-12-24T16:20:23.837Z,-19.28
2022-12-24T16:23:53.651Z,-19.41
2022-12-24T16:27:15.095Z,-19.35
2022-12-24T16:30:19.383Z,-19.29
2022-12-24T16:33:41.395Z,-19.38
2022-12-24T16:36:46.400Z,-19.35
2022-12-24T16:39:49.609Z,-19.29
2022-12-24T16:43:10.934Z,-19.28
2022-12-24T16:46:14.361Z,-19.33
2022-12-24T16:49:20.817Z,-19.39
2022-12-24T16:52:26.946Z,-19.39
2022-12-24T16:55:30.392Z,-19.31
2022-12-24T16:58:52.377Z,-19.33
2022-12-24T17:02:33.961Z,-19.29
2022-12-24T17:06:02.156Z,-19.20
2022-12-24T17:09:06.501Z,-19.25
2022-12-24T17:12:29.179Z,-19.45
2022-12-24T17:15:32.584Z,-19.53
2022-12-24T17:18:36.112Z,-19.56
2022-12-24T17:21:41.260Z,-19.52
2022-12-24T17:24:45.084Z,-19.54
2022-12-24T17:27:48.089Z,-19.62
2022-12-24T17:30:52.447Z,-19.68
2022-12-24T17:33:55.563Z,-19.62
2022-12-24T17:36:58.779Z,-19.56
2022-12-24T17:40:20.969Z,-19.57
2022-12-24T17:43:23.978Z,-19.46
2022-12-24T17:46:45.735Z,-19.37
2022-12-24T17:49:49.194Z,-19.34
2022-12-24T17:53:12.585Z,-19.27
2022-12-24T17:56:16.850Z,-19.18
2022-12-24T17:59:20.685Z,-19.34
2022-12-24T18:02:24.570Z,-19.28
2022-12-24T18:05:46.236Z,-19.28
2022-12-24T18:09:07.988Z,-19.33
2022-12-24T18:12:12.426Z,-19.48
2022-12-24T18:15:20.857Z,-19.49
2022-12-24T18:18:23.931Z,-19.36
2022-12-24T18:21:30.298Z,-19.27
2022-12-24T18:24:33.594Z,-19.27
2022-12-24T18:27:37.481Z,-19.45
2022-12-24T18:30:41.449Z,-19.55
2022-12-24T18:33:45.862Z,-19.48
2022-12-24T18:36:54.825Z,-19.54
2022-12-24T18:39:58.503Z,-19.51
2022-12-24T18:43:01.470Z,-19.48
2022-12-24T18:46:26.255Z,-19.59
2022-12-24T18:49:29.438Z,-19.69
2022-12-24T18:52:33.053Z,-19.61
2022-12-24T18:55:37.333Z,-19.47
2022-12-24T18:58:42.812Z,-19.47
2022-12-24T19:01:46.935Z,-19.52
2022-12-24T19:04:51.026Z,-19.56
2022-12-24T19:07:54.000Z,-19.47
2022-12-24T19:11:17.254Z,-19.45
2022-12-24T19:14:23.213Z,-19.49
2022-12-24T19:17:26.348Z,-19.50
2022-12-24T19:21:06.279Z,-19.51
2022-12-24T19:24:11.046Z,-19.51
2022-12-24T19:27:14.454Z,-19.56
2022-12-24T19:30:17.449Z,-19.51
2022-12-24T19:33:21.516Z,-19.76
2022-12-24T19:36:30.795Z,-19.79
2022-12-24T19:39:35.069Z,-19.84
2022-12-24T19:42:38.394Z,-19.75
2022-12-24T19:45:42.036Z,-19.82
2022-12-24T19:48:48.723Z,-19.75
2022-12-24T19:51:52.458Z,-19.65
2022-12-24T19:54:56.527Z,-19.70
2022-12-24T19:58:00.235Z,-19.63
2022-12-24T20:01:15.515Z,-19.53
2022-12-24T20:04:19.791Z,-19.47
2022-12-24T20:07:22.858Z,-19.42
2022-12-24T20:10:26.509Z,-19.45
2022-12-24T20:13:30.145Z,-19.50
2022-12-24T20:16:33.956Z,-19.55
2022-12-24T20:19:37.038Z,-19.46
2022-12-24T20:22:41.164Z,-19.51
2022-12-24T20:26:05.476Z,-19.57
2022-12-24T20:29:11.671Z,-19.52
2022-12-24T20:32:15.578Z,-19.53
2022-12-24T20:35:38.015Z,-19.40
2022-12-24T20:38:41.142Z,-19.54
2022-12-24T20:42:04.293Z,-19.73
2022-12-24T20:45:25.804Z,-19.65
2022-12-24T20:48:29.321Z,-19.55
2022-12-24T20:51:33.502Z,-19.61
2022-12-24T20:54:36.523Z,-19.60
2022-12-24T20:57:39.616Z,-19.58
2022-12-24T21:00:42.674Z,-19.49
2022-12-24T21:03:47.107Z,-19.43
2022-12-24T21:07:09.342Z,-19.35
2022-12-24T21:10:13.757Z,-19.31
2022-12-24T21:13:16.748Z,-19.31
2022-12-24T21:16:19.757Z,-19.26
2022-12-24T21:19:24.654Z,-19.14
2022-12-24T21:22:27.924Z,-18.97
2022-12-24T21:25:31.699Z,-18.83
2022-12-24T21:28:34.830Z,-18.79
2022-12-24T21:31:38.053Z,-19.01
2022-12-24T21:34:41.719Z,-19.18
2022-12-24T21:37:44.730Z,-19.29
2022-12-24T21:41:06.209Z,-19.41
2022-12-24T21:44:09.182Z,-19.46
2022-12-24T21:47:31.010Z,-19.55
2022-12-24T21:50:58.558Z,-19.65
2022-12-24T21:54:20.103Z,-19.76
2022-12-24T21:57:53.387Z,-19.68
2022-12-24T22:00:56.806Z,-19.63
2022-12-24T22:03:59.805Z,-19.70
2022-12-24T22:07:23.955Z,-19.80
2022-12-24T22:10:46.670Z,-19.87
2022-12-24T22:13:50.390Z,-19.84
2022-12-24T22:17:11.823Z,-19.78
2022-12-24T22:20:35.295Z,-19.73
2022-12-24T22:23:42.545Z,-19.73
2022-12-24T22:27:05.209Z,-19.86
2022-12-24T22:30:27.410Z,-19.88
2022-12-24T22:33:32.761Z,-19.87
2022-12-24T22:36:36.689Z,-19.79
2022-12-24T22:39:40.026Z,-19.71
2022-12-24T22:43:20.753Z,-19.69
2022-12-24T22:46:42.276Z,-19.69
2022-12-24T22:49:48.583Z,-19.64
2022-12-24T22:52:54.023Z,-19.63
2022-12-24T22:55:59.221Z,-19.61
2022-12-24T22:59:04.401Z,-19.58
2022-12-24T23:02:09.010Z,-19.54
2022-12-24T23:05:34.051Z,-19.59
2022-12-24T23:08:39.246Z,-19.52
2022-12-24T23:12:01.571Z,-19.46
2022-12-24T23:15:05.181Z,-19.51
2022-12-24T23:18:08.673Z,-19.46
2022-12-24T23:21:12.425Z,-19.38
2022-12-24T23:24:15.405Z,-19.34
2022-12-24T23:27:18.767Z,-19.25
2022-12-24T23:30:21.754Z,-19.39
2022-12-24T23:33:43.823Z,-19.33
2022-12-24T23:36:47.354Z,-19.28
2022-12-24T23:39:50.356Z,-19.38
2022-12-24T23:42:53.362Z,-19.41
2022-12-24T23:45:58.839Z,-19.33
2022-12-24T23:49:02.587Z,-19.22
2022-12-24T23:52:05.841Z,-19.30
2022-12-24T23:55:09.650Z,-19.38
2022-12-24T23:58:17.114Z,-19.33
